Time;durP1;ratioP1;P1;durP2;ratioP2;P2;SDS_P1;SDS_P2;PMS_P1;PMS_P2;Temp;Humidity;BMP_temperature;BMP_pressure;BME280_temperature;BME280_humidity;BME280_pressure;Samples;Min_cycle;Max_cycle;Signal;HPM_P1;HPM_P2
2022/05/07 00:01:36;;;;;;;17.48;13.57;;;;;;;11.95;94.45;68104.31;6035976;23;20034;-83
2022/05/07 00:04:02;;;;;;;17.55;13.95;;;;;;;11.92;94.77;68097.66;6008588;23;20076;-84
2022/05/07 00:06:28;;;;;;;16.50;14.07;;;;;;;11.91;94.74;68091.78;6047582;23;20042;-84
2022/05/07 00:08:53;;;;;;;22.30;14.30;;;;;;;;;;6063031;23;20030;-83
2022/05/07 00:11:20;;;;;;;18.23;14.13;;;;;;;;;;6065185;23;20046;-85
2022/05/07 00:13:46;;;;;;;16.70;13.32;;;;;;;;;;6061693;23;20520;-84
2022/05/07 00:18:55;;;;;;;19.23;14.40;;;;;;;11.78;94.80;68082.31;6063760;23;20062;-84
2022/05/07 00:21:21;;;;;;;20.05;15.95;;;;;;;11.75;94.97;68078.91;6065107;23;20406;-84
2022/05/07 00:23:46;;;;;;;21.63;16.45;;;;;;;11.74;94.98;68077.78;6062870;23;20019;-85
2022/05/07 00:26:11;;;;;;;19.52;15.25;;;;;;;11.67;94.98;68070.38;6064593;23;20025;-84
2022/05/07 00:28:37;;;;;;;20.88;16.08;;;;;;;11.55;96.09;68056.75;6084180;23;20121;-87
2022/05/07 00:31:02;;;;;;;20.48;15.38;;;;;;;;;;6059912;23;20418;-84
2022/05/07 00:33:27;;;;;;;23.80;15.67;;;;;;;11.50;96.36;68051.63;6061630;23;20055;-84
2022/05/07 00:35:53;;;;;;;21.67;16.45;;;;;;;11.43;96.90;68043.13;6061299;23;20255;-84
2022/05/07 00:38:18;;;;;;;22.50;17.90;;;;;;;11.37;97.33;68036.88;6063793;23;20117;-84
2022/05/07 00:40:43;;;;;;;21.55;17.95;;;;;;;;;;6065842;23;20029;-84
2022/05/07 00:43:09;;;;;;;22.07;16.57;;;;;;;11.35;97.07;68034.59;6064688;23;20353;-84
2022/05/07 00:45:35;;;;;;;21.17;16.80;;;;;;;11.29;97.27;68022.47;6066023;23;20700;-85
2022/05/07 00:48:01;;;;;;;21.83;16.08;;;;;;;11.27;97.67;68026.09;6070726;23;20015;-85
2022/05/07 00:53:10;;;;;;;19.38;16.15;;;;;;;11.29;97.14;68028.34;6083069;23;20013;-85
2022/05/07 00:55:37;;;;;;;23.42;16.77;;;;;;;11.26;97.18;68027.06;6093258;23;20035;-84
2022/05/07 00:58:02;;;;;;;20.50;16.40;;;;;;;11.22;97.35;68019.84;6062138;23;20017;-84
2022/05/07 01:00:28;;;;;;;25.75;16.63;;;;;;;11.12;98.34;68008.50;6062682;23;20016;-84
2022/05/07 01:02:53;;;;;;;23.83;18.05;;;;;;;11.09;98.36;68008.31;6061756;23;20097;-85
2022/05/07 01:05:18;;;;;;;23.17;18.85;;;;;;;11.11;98.93;68010.03;6082910;23;20031;-86
2022/05/07 01:07:45;;;;;;;23.17;19.58;;;;;;;11.05;99.23;68001.69;6059034;23;20018;-86
2022/05/07 01:10:12;;;;;;;23.65;18.73;;;;;;;10.99;99.61;67994.28;6058260;23;20026;-85
2022/05/07 01:12:38;;;;;;;24.25;18.80;;;;;;;10.99;99.66;67994.28;6060899;23;20065;-85
2022/05/07 01:15:04;;;;;;;26.23;18.70;;;;;;;;;;6060375;23;20445;-86
2022/05/07 01:17:33;;;;;;;23.90;17.88;;;;;;;10.90;99.66;67984.63;6059045;23;20098;-85
2022/05/07 01:19:59;;;;;;;26.98;20.48;;;;;;;10.91;99.62;67985.78;6082092;23;20073;-85
2022/05/07 01:22:24;;;;;;;24.52;18.95;;;;;;;10.90;99.93;67986.75;6060020;23;20046;-86
2022/05/07 01:24:50;;;;;;;24.42;19.42;;;;;;;10.84;100.00;67980.50;6059918;23;20018;-85
2022/05/07 01:27:15;;;;;;;24.35;18.48;;;;;;;10.85;100.00;67978.97;6058567;23;20542;-85
2022/05/07 01:29:41;;;;;;;24.58;20.02;;;;;;;10.83;100.00;67982.03;6057904;23;20015;-85
2022/05/07 01:32:06;;;;;;;26.90;18.48;;;;;;;;;;6061502;23;20396;-85
2022/05/07 01:34:31;;;;;;;24.40;18.17;;;;;;;10.80;100.00;67973.31;6059692;23;20537;-86
2022/05/07 01:36:57;;;;;;;24.23;19.50;;;;;;;10.82;100.00;67980.91;6059045;23;20022;-85
2022/05/07 01:39:22;;;;;;;24.00;18.48;;;;;;;10.87;100.00;67986.56;6059210;23;20386;-85
2022/05/07 01:41:47;;;;;;;24.77;19.10;;;;;;;10.85;100.00;67978.97;6061449;23;20518;-85
2022/05/07 01:44:13;;;;;;;25.08;19.50;;;;;;;10.83;100.00;67976.72;6060746;23;20381;-84
2022/05/07 01:49:22;;;;;;;27.25;20.13;;;;;;;10.80;100.00;67975.97;6063518;23;20022;-85
2022/05/07 01:51:47;;;;;;;26.23;20.60;;;;;;;10.79;100.00;67972.75;6060215;23;20011;-86
2022/05/07 01:54:13;;;;;;;27.63;20.55;;;;;;;10.75;100.00;67967.63;6059259;23;20330;-86
2022/05/07 01:56:38;;;;;;;27.48;21.45;;;;;;;10.72;100.00;67964.78;6061164;23;20018;-86
2022/05/07 01:59:03;;;;;;;25.65;20.05;;;;;;;10.74;100.00;67969.16;6085212;23;20639;-84
2022/05/07 02:01:29;;;;;;;28.60;21.10;;;;;;;10.71;100.00;67963.66;6062077;23;20094;-84
2022/05/07 02:03:54;;;;;;;27.38;21.00;;;;;;;10.71;100.00;67958.34;6062916;23;20043;-84
2022/05/07 02:06:19;;;;;;;26.40;19.90;;;;;;;10.72;100.00;67964.22;6061324;23;20023;-83
2022/05/07 02:08:45;;;;;;;26.02;19.52;;;;;;;10.72;100.00;67964.22;6062145;23;20015;-84
2022/05/07 02:11:10;;;;;;;25.30;20.17;;;;;;;10.65;100.00;67956.28;6064827;23;20022;-85
2022/05/07 02:13:35;;;;;;;23.88;19.25;;;;;;;;;;6065313;23;20018;-84
2022/05/07 02:16:00;;;;;;;25.38;18.65;;;;;;;;;;6059939;23;20019;-85
2022/05/07 02:18:26;;;;;;;24.95;18.52;;;;;;;10.64;100.00;67950.38;6063168;23;20372;-84
2022/05/07 02:20:53;;;;;;;24.10;20.00;;;;;;;;;;6061731;23;20015;-85
2022/05/07 02:23:19;;;;;;;29.40;20.33;;;;;;;10.65;100.00;67956.84;6059718;23;20413;-85
2022/05/07 02:25:45;;;;;;;25.38;20.15;;;;;;;10.66;100.00;67957.41;6061202;23;20037;-85
2022/05/07 02:28:10;;;;;;;32.00;22.20;;;;;;;10.58;100.00;67954.78;6064083;23;20019;-84
2022/05/07 02:30:36;;;;;;;30.55;23.05;;;;;;;10.59;100.00;67950.59;6062016;23;20046;-84
2022/05/07 02:33:01;;;;;;;33.60;23.23;;;;;;;;;;6058019;23;20038;-86
2022/05/07 02:35:26;;;;;;;29.58;22.52;;;;;;;10.66;100.00;67957.41;6059655;23;20510;-85
2022/05/07 02:37:52;;;;;;;29.60;22.80;;;;;;;10.64;100.00;67955.13;6059863;23;20067;-85
2022/05/07 02:40:17;;;;;;;30.73;23.10;;;;;;;10.59;100.00;67950.03;6058536;23;20093;-86
2022/05/07 02:42:44;;;;;;;31.13;24.15;;;;;;;10.57;100.00;67948.31;6061509;23;20023;-86
2022/05/07 02:45:11;;;;;;;29.67;24.02;;;;;;;10.56;100.00;67947.19;6061218;23;20011;-85
2022/05/07 02:47:39;;;;;;;27.42;23.40;;;;;;;10.52;100.00;67945.31;6060315;23;20027;-86
2022/05/07 02:50:06;;;;;;;26.08;21.70;;;;;;;10.45;100.00;67934.72;6082623;23;20505;-85
2022/05/07 02:52:33;;;;;;;29.95;22.15;;;;;;;10.47;100.00;67942.31;6063832;23;20489;-85
2022/05/07 02:55:03;;;;;;;25.80;21.40;;;;;;;10.46;100.00;67935.84;6081372;23;20054;-86
2022/05/07 02:57:29;;;;;;;29.00;23.00;;;;;;;10.41;100.00;67930.16;6059214;23;20030;-85
2022/05/07 02:59:54;;;;;;;29.95;22.45;;;;;;;10.33;100.00;67921.66;6060271;23;20023;-86
2022/05/07 03:02:20;;;;;;;29.25;23.45;;;;;;;10.29;100.00;67916.56;6059281;23;20019;-86
2022/05/07 03:04:47;;;;;;;29.05;23.23;;;;;;;;;;6058098;23;20164;-85
2022/05/07 03:07:13;;;;;;;27.63;22.65;;;;;;;10.27;100.00;67914.28;6032882;23;20098;-86
2022/05/07 03:09:38;;;;;;;31.02;23.50;;;;;;;10.26;100.00;67915.78;6006238;23;20118;-86
2022/05/07 03:12:04;;;;;;;29.85;23.52;;;;;;;10.22;100.00;67908.59;6005550;23;20462;-85
2022/05/07 03:14:31;;;;;;;32.35;24.02;;;;;;;10.17;100.00;67906.16;6031446;23;20023;-86
2022/05/07 03:16:56;;;;;;;30.55;23.75;;;;;;;10.19;100.00;67910.53;6005651;23;20047;-85
2022/05/07 03:19:22;;;;;;;34.60;24.38;;;;;;;10.17;100.00;67904.06;6036617;23;20020;-84
2022/05/07 03:21:47;;;;;;;29.60;23.85;;;;;;;10.20;100.00;67909.56;6036744;23;20027;-83
2022/05/07 03:24:13;;;;;;;31.35;23.88;;;;;;;10.16;100.00;67902.94;6038413;23;20019;-84
2022/05/07 03:26:38;;;;;;;34.20;25.95;;;;;;;10.20;100.00;67901.00;6035497;23;20074;-85
2022/05/07 03:29:04;;;;;;;33.33;27.05;;;;;;;10.21;100.00;67908.03;6035210;23;20024;-84
2022/05/07 03:31:30;;;;;;;32.30;26.52;;;;;;;;;;6037803;23;20086;-85
2022/05/07 03:33:55;;;;;;;34.08;27.38;;;;;;;10.27;100.00;67919.59;6036661;23;20430;-85
2022/05/07 03:36:21;;;;;;;34.38;27.13;;;;;;;10.30;100.00;67920.34;6035188;23;20030;-85
2022/05/07 03:38:46;;;;;;;32.13;25.50;;;;;;;;;;6036897;23;20035;-86
2022/05/07 03:41:12;;;;;;;34.30;26.55;;;;;;;10.31;100.00;67918.84;6012184;23;20023;-86
2022/05/07 03:43:37;;;;;;;31.77;26.20;;;;;;;10.27;100.00;67914.88;6039234;23;20079;-86
2022/05/07 03:46:04;;;;;;;36.70;27.00;;;;;;;10.24;100.00;67911.44;6048536;23;20274;-86
2022/05/07 03:48:30;;;;;;;37.65;28.50;;;;;;;10.27;100.00;67916.94;6046934;23;20019;-83
2022/05/07 03:50:55;;;;;;;36.58;27.17;;;;;;;10.28;100.00;67921.31;6020776;23;20026;-85
2022/05/07 03:53:30;;;;;;;34.25;27.15;;;;;;;;;;6046605;23;20019;-86
2022/05/07 03:56:08;;;;;;;34.50;26.63;;;;;;;10.28;100.00;67916.00;6020230;23;20480;-85
2022/05/07 03:58:35;;;;;;;33.97;27.02;;;;;;;10.26;100.00;67918.44;6045069;23;20019;-84
2022/05/07 04:01:00;;;;;;;34.03;26.77;;;;;;;10.24;100.00;67910.84;6041814;23;20015;-84
2022/05/07 04:03:27;;;;;;;35.08;25.70;;;;;;;10.26;100.00;67913.13;6039505;23;20031;-84
2022/05/07 04:05:53;;;;;;;33.90;26.20;;;;;;;10.28;100.00;67918.66;6038112;23;20074;-84
2022/05/07 04:08:19;;;;;;;32.53;25.73;;;;;;;;;;6036575;23;20022;-86
2022/05/07 04:10:45;;;;;;;32.85;26.30;;;;;;;10.24;100.00;67911.44;6009751;23;20034;-86
2022/05/07 04:13:15;;;;;;;31.40;26.63;;;;;;;10.23;100.00;67909.72;6037401;23;20016;-86
2022/05/07 04:15:41;;;;;;;33.00;25.75;;;;;;;10.21;100.00;67910.69;6054799;23;20019;-86
2022/05/07 04:18:07;;;;;;;32.80;26.73;;;;;;;10.21;100.00;67910.13;6054694;23;20019;-86
2022/05/07 04:20:33;;;;;;;35.63;27.75;;;;;;;10.21;100.00;67902.13;6034529;23;20098;-86
2022/05/07 04:22:59;;;;;;;35.63;27.45;;;;;;;10.19;100.00;67905.75;6031551;23;20015;-87
2022/05/07 04:25:25;;;;;;;35.38;27.90;;;;;;;10.22;100.00;67908.59;6032229;23;20042;-85
2022/05/07 04:27:51;;;;;;;37.92;28.83;;;;;;;;;;6034288;23;20019;-85
2022/05/07 04:30:16;;;;;;;34.90;27.90;;;;;;;;;;6034664;23;20027;-86
2022/05/07 04:32:41;;;;;;;36.72;28.23;;;;;;;10.33;100.00;67916.34;6007386;23;20078;-86
2022/05/07 04:35:07;;;;;;;40.28;28.83;;;;;;;10.38;100.00;67926.75;6007614;23;20573;-85
2022/05/07 04:37:32;;;;;;;38.28;30.25;;;;;;;10.43;100.00;67935.09;6033839;23;20449;-85
2022/05/07 04:39:58;;;;;;;40.28;29.25;;;;;;;;;;6034464;23;20046;-85
2022/05/07 04:42:23;;;;;;;37.05;29.48;;;;;;;10.49;100.00;67944.56;6012161;23;20078;-85
2022/05/07 04:44:48;;;;;;;37.67;29.23;;;;;;;10.53;100.00;67946.47;6036547;23;20022;-83
2022/05/07 04:47:14;;;;;;;39.28;29.58;;;;;;;;;;6012106;23;20023;-84
2022/05/07 04:49:39;;;;;;;38.17;28.58;;;;;;;10.68;100.00;67959.69;6037471;23;20050;-84
2022/05/07 04:52:08;;;;;;;40.55;28.88;;;;;;;10.71;100.00;67968.41;6012189;23;20018;-84
2022/05/07 04:54:33;;;;;;;35.85;28.55;;;;;;;;;;6038187;23;20015;-85
2022/05/07 04:56:59;;;;;;;36.88;30.23;;;;;;;10.73;100.00;67960.59;6012347;23;20026;-85
2022/05/07 04:59:25;;;;;;;37.05;28.42;;;;;;;10.77;100.00;67972.56;6039930;23;20023;-85
2022/05/07 05:01:50;;;;;;;38.58;29.67;;;;;;;10.81;100.00;67977.09;6039719;23;20361;-86
2022/05/07 05:04:16;;;;;;;36.03;28.40;;;;;;;10.85;100.00;67981.66;6042880;23;20472;-85
2022/05/07 05:06:42;;;;;;;38.00;29.48;;;;;;;10.87;100.00;67981.25;6063822;23;20042;-85
2022/05/07 05:09:08;;;;;;;40.15;28.88;;;;;;;10.90;100.00;67987.31;6073119;23;20083;-84
2022/05/07 05:11:34;;;;;;;36.05;29.63;;;;;;;10.96;100.00;67994.13;6076143;23;20015;-84
2022/05/07 05:14:00;;;;;;;39.25;28.65;;;;;;;11.02;100.00;67998.28;6068822;23;20019;-84
2022/05/07 05:16:26;;;;;;;38.25;29.50;;;;;;;11.04;100.00;67994.66;6065005;23;20015;-84
2022/05/07 05:18:51;;;;;;;40.30;30.13;;;;;;;;;;6066817;23;20078;-84
2022/05/07 05:21:17;;;;;;;37.22;28.77;;;;;;;11.14;100.00;68010.78;6066739;23;20027;-85
2022/05/07 05:23:42;;;;;;;38.75;29.83;;;;;;;11.18;100.00;68015.31;6065170;23;20689;-85
2022/05/07 05:26:08;;;;;;;39.53;29.30;;;;;;;;;;6065791;23;20449;-84
2022/05/07 05:28:35;;;;;;;40.78;30.08;;;;;;;11.29;100.00;68027.78;6066048;23;20025;-84
2022/05/07 05:31:02;;;;;;;38.58;30.52;;;;;;;11.37;100.00;68036.88;6065916;23;20142;-84
2022/05/07 05:33:27;;;;;;;39.20;30.50;;;;;;;11.45;100.00;68045.97;6066622;23;20025;-84
2022/05/07 05:35:52;;;;;;;38.75;30.42;;;;;;;;;;6063879;23;20039;-85
2022/05/07 05:38:18;;;;;;;37.92;28.90;;;;;;;11.62;100.00;68064.13;6067115;23;20023;-84
2022/05/07 05:40:43;;;;;;;42.70;29.83;;;;;;;11.71;100.00;68074.94;6064795;23;20525;-84
2022/05/07 05:43:09;;;;;;;39.75;30.23;;;;;;;11.81;100.00;68085.72;6063312;23;20041;-84
2022/05/07 05:45:35;;;;;;;34.95;28.45;;;;;;;11.90;98.66;68098.63;6064166;23;20014;-84
2022/05/07 05:48:01;;;;;;;38.08;29.88;;;;;;;12.03;98.28;68110.16;6065527;23;20015;-84
2022/05/07 05:50:30;;;;;;;35.30;28.00;;;;;;;12.13;98.03;68116.19;6062814;23;20106;-85
2022/05/07 05:52:56;;;;;;;33.38;28.33;;;;;;;;;;6064965;23;20087;-84
2022/05/07 05:55:21;;;;;;;33.45;28.45;;;;;;;12.29;97.06;68139.16;6064682;23;20407;-84
2022/05/07 05:57:47;;;;;;;36.45;27.95;;;;;;;12.37;95.88;68147.66;6061953;23;20018;-84
2022/05/07 06:00:13;;;;;;;35.95;26.90;;;;;;;12.50;95.11;68161.88;6064797;23;20089;-84
2022/05/07 06:02:38;;;;;;;31.63;26.95;;;;;;;12.58;94.62;68166.19;6064584;23;20023;-86
2022/05/07 06:05:04;;;;;;;41.17;28.65;;;;;;;12.70;93.89;68184.03;6063087;23;20112;-86
2022/05/07 06:07:30;;;;;;;35.05;25.67;;;;;;;12.83;93.50;68202.06;6065169;23;20488;-86
2022/05/07 06:09:55;;;;;;;33.53;25.50;;;;;;;12.96;92.79;68213.59;6064912;23;20023;-86
2022/05/07 06:12:21;;;;;;;32.60;26.95;;;;;;;13.05;91.64;68223.25;6064872;23;20030;-85
2022/05/07 06:14:47;;;;;;;31.60;25.08;;;;;;;13.16;91.80;68230.41;6085673;23;20019;-85
2022/05/07 06:17:12;;;;;;;34.90;25.10;;;;;;;13.28;91.07;68249.44;6063756;23;20029;-86
2022/05/07 06:19:38;;;;;;;35.20;25.20;;;;;;;;;;6062768;23;20051;-86
2022/05/07 06:22:03;;;;;;;35.93;26.33;;;;;;;13.52;90.59;68276.19;6063536;23;20019;-86
2022/05/07 06:27:28;;;;;;;35.80;23.20;;;;;;;13.73;88.31;68302.16;6063149;23;20021;-84
2022/05/07 06:29:54;;;;;;;33.28;25.65;;;;;;;13.90;87.84;68318.25;6062594;23;20011;-84
2022/05/07 06:32:19;;;;;;;29.77;22.73;;;;;;;;;;6063091;23;20038;-85
2022/05/07 06:34:45;;;;;;;34.15;23.90;;;;;;;;;;6062028;23;20063;-84
2022/05/07 06:37:11;;;;;;;31.80;23.27;;;;;;;14.21;85.56;68352.97;6062094;23;20409;-85
2022/05/07 06:39:37;;;;;;;33.40;25.25;;;;;;;;;;6063695;23;20022;-84
2022/05/07 06:42:02;;;;;;;31.58;23.80;;;;;;;;;;6063444;23;20023;-85
2022/05/07 06:44:28;;;;;;;31.60;24.52;;;;;;;;;;6063871;23;20018;-85
2022/05/07 06:46:53;;;;;;;33.97;23.30;;;;;;;14.67;82.37;68403.66;6061407;23;20019;-84
2022/05/07 06:49:18;;;;;;;32.25;25.17;;;;;;;14.73;82.13;68410.50;6064945;23;20254;-85
2022/05/07 06:51:44;;;;;;;34.63;25.02;;;;;;;14.79;82.27;68411.97;6065200;23;20031;-85
2022/05/07 06:54:10;;;;;;;37.40;25.90;;;;;;;14.87;82.10;68420.50;6066704;23;20435;-85
2022/05/07 06:56:35;;;;;;;37.92;26.65;;;;;;;14.96;81.55;68436.13;6065287;23;20030;-86
2022/05/07 06:59:01;;;;;;;35.15;25.33;;;;;;;;;;6066085;23;20011;-86
2022/05/07 07:01:26;;;;;;;35.70;25.17;;;;;;;15.12;81.78;68453.75;6066868;23;20027;-87
2022/05/07 07:03:51;;;;;;;32.92;26.13;;;;;;;;;;6065466;23;20511;-86
2022/05/07 07:06:17;;;;;;;34.83;27.50;;;;;;;;;;6065421;23;20023;-86
2022/05/07 07:08:43;;;;;;;39.20;26.20;;;;;;;15.55;80.25;68496.81;6065588;23;20891;-85
2022/05/07 07:11:08;;;;;;;34.78;25.35;;;;;;;;;;6068534;23;20090;-84
2022/05/07 07:13:33;;;;;;;37.53;27.83;;;;;;;15.78;78.72;68530.50;6084846;23;20074;-86
2022/05/07 07:15:58;;;;;;;33.72;23.95;;;;;;;15.93;78.81;68544.34;6084489;23;20243;-87
2022/05/07 07:18:24;;;;;;;38.38;24.95;;;;;;;16.07;76.67;68559.19;6082195;23;20026;-85
2022/05/07 07:20:49;;;;;;;35.40;23.63;;;;;;;16.15;76.21;68568.28;6082250;23;20022;-87
2022/05/07 07:23:15;;;;;;;37.53;26.65;;;;;;;16.23;75.75;68577.41;6108249;23;20046;-85
2022/05/07 07:25:41;;;;;;;35.60;26.83;;;;;;;;;;6083922;23;20473;-85
2022/05/07 07:28:08;;;;;;;36.03;24.73;;;;;;;;;;6081600;23;20022;-83
2022/05/07 07:30:34;;;;;;;32.75;24.40;;;;;;;16.52;74.35;68609.91;6081023;23;20040;-86
2022/05/07 07:33:00;;;;;;;36.22;24.73;;;;;;;16.55;74.63;68605.28;6077982;23;20042;-88
2022/05/07 07:35:26;;;;;;;36.22;26.30;;;;;;;16.78;73.99;68633.63;6080217;23;20023;-87
2022/05/07 07:37:52;;;;;;;32.25;24.77;;;;;;;16.90;73.16;68646.75;6076211;23;20022;-88
2022/05/07 07:40:17;;;;;;;37.15;25.00;;;;;;;17.02;72.82;68659.84;6079698;23;20033;-88
2022/05/07 07:42:43;;;;;;;32.40;25.20;;;;;;;17.07;72.92;68666.13;6077139;23;20019;-87
2022/05/07 07:47:57;;;;;;;32.92;23.23;;;;;;;17.13;72.64;68672.41;6064345;23;20017;-86
2022/05/07 07:50:23;;;;;;;36.50;22.73;;;;;;;17.13;71.99;68672.41;6088879;23;20015;-87
2022/05/07 07:52:53;;;;;;;36.38;23.65;;;;;;;;;;6066827;23;20023;-87
2022/05/07 07:55:18;;;;;;;35.30;24.27;;;;;;;17.25;71.44;68690.91;6067242;23;20054;-87
2022/05/07 07:57:44;;;;;;;37.70;23.60;;;;;;;17.29;72.28;68690.66;6066725;23;20022;-84
2022/05/07 08:00:09;;;;;;;33.70;24.75;;;;;;;;;;6066297;23;20027;-86
2022/05/07 08:02:34;;;;;;;33.70;23.50;;;;;;;17.37;71.85;68699.78;6063465;23;20025;-87
2022/05/07 08:05:00;;;;;;;31.98;23.35;;;;;;;17.49;71.61;68712.31;6060307;23;20031;-86
2022/05/07 08:12:53;;;;;;;31.38;24.60;;;;;;;17.38;70.73;68700.38;6036642;23;20069;-86
2022/05/07 08:15:18;;;;;;;34.33;24.85;;;;;;;;;;6032869;23;20019;-85
2022/05/07 08:17:43;;;;;;;33.13;25.80;;;;;;;17.48;71.93;68711.75;6008213;23;20113;-87
2022/05/07 08:20:09;;;;;;;31.42;26.00;;;;;;;17.52;71.25;68721.72;6033426;23;20058;-87
2022/05/07 08:22:35;;;;;;;40.70;27.30;;;;;;;17.57;71.47;68722.03;6034712;23;20039;-88
2022/05/07 08:25:01;;;;;;;39.00;26.27;;;;;;;17.54;71.17;68723.41;6035233;23;20090;-88
2022/05/07 08:27:27;;;;;;;32.63;22.63;;;;;;;17.59;69.59;68729.13;6034285;23;20517;-88
2022/05/07 08:29:55;;;;;;;30.67;23.75;;;;;;;17.70;69.56;68735.72;6033941;23;20027;-87
2022/05/07 08:32:20;;;;;;;30.50;22.65;;;;;;;17.78;68.90;68742.19;6034932;23;20023;-85
2022/05/07 08:34:48;;;;;;;25.88;21.25;;;;;;;18.04;68.01;68771.28;6038235;23;20023;-84
2022/05/07 08:37:14;;;;;;;25.48;19.95;;;;;;;18.23;66.19;68795.66;6035456;23;20023;-86
2022/05/07 08:39:39;;;;;;;27.60;20.40;;;;;;;;;;6035569;23;20121;-86
2022/05/07 08:42:06;;;;;;;25.45;19.08;;;;;;;17.97;65.48;68771.94;6010908;23;20019;-86
2022/05/07 08:44:32;;;;;;;25.65;18.13;;;;;;;18.09;64.94;68784.50;6012891;23;20019;-87
2022/05/07 08:46:59;;;;;;;22.88;17.73;;;;;;;18.22;63.33;68794.53;6037213;23;20086;-84
2022/05/07 08:49:25;;;;;;;25.38;16.83;;;;;;;18.25;63.40;68797.38;6036830;23;20027;-84
2022/05/07 08:51:50;;;;;;;25.63;17.48;;;;;;;;;;6036213;23;20019;-83
2022/05/07 08:54:16;;;;;;;25.38;20.23;;;;;;;18.39;65.52;68812.81;6012249;23;20027;-84
2022/05/07 08:56:41;;;;;;;24.95;18.13;;;;;;;;;;6037281;23;20026;-84
2022/05/07 08:59:06;;;;;;;25.17;19.63;;;;;;;18.48;63.08;68823.66;6037856;23;20020;-84
2022/05/07 09:01:32;;;;;;;22.25;17.02;;;;;;;18.61;63.89;68843.28;6037012;23;20252;-85
2022/05/07 09:04:08;;;;;;;20.90;14.50;;;;;;;18.92;62.42;68869.50;6035545;23;20087;-85
2022/05/07 09:06:33;;;;;;;26.55;18.50;;;;;;;18.85;61.04;68859.38;6051125;23;20015;-85
2022/05/07 09:08:59;;;;;;;20.67;16.65;;;;;;;18.95;61.83;68875.63;6064459;23;20010;-85
2022/05/07 09:11:25;;;;;;;23.73;17.67;;;;;;;;;;6063063;23;20026;-84
2022/05/07 09:14:04;;;;;;;26.70;18.45;;;;;;;18.91;60.53;68871.06;6063774;23;20395;-85
2022/05/07 09:16:41;;;;;;;25.13;18.80;;;;;;;19.00;60.33;68881.34;6064559;23;20342;-85
2022/05/07 09:19:27;;;;;;;23.45;19.75;;;;;;;18.93;61.05;68879.31;6064232;23;20014;-85
2022/05/07 09:22:03;;;;;;;20.75;16.85;;;;;;;;;;6060598;23;20030;-84
2022/05/07 09:24:28;;;;;;;20.40;14.73;;;;;;;19.08;59.32;68889.91;6062476;23;20050;-84
2022/05/07 09:26:57;;;;;;;21.77;16.83;;;;;;;19.11;59.33;68893.91;6061896;23;20015;-84
2022/05/07 09:29:26;;;;;;;24.48;16.88;;;;;;;19.11;58.79;68891.22;6063273;23;20634;-85
2022/05/07 09:31:53;;;;;;;22.05;15.77;;;;;;;19.31;60.11;68912.91;6060684;23;20123;-84
2022/05/07 09:37:20;;;;;;;21.40;14.57;;;;;;;19.26;58.87;68907.78;6058968;23;20093;-84
2022/05/07 09:39:50;;;;;;;22.67;17.23;;;;;;;19.25;57.88;68909.34;6060468;23;20023;-84
2022/05/07 09:42:20;;;;;;;20.35;15.00;;;;;;;19.41;57.83;68927.03;6058809;23;20412;-85
2022/05/07 09:44:46;;;;;;;20.40;15.43;;;;;;;19.51;57.63;68938.47;6083020;23;20015;-84
2022/05/07 09:47:12;;;;;;;18.48;15.15;;;;;;;19.53;57.08;68946.13;6061222;23;20025;-85
2022/05/07 09:50:19;;;;;;;21.80;15.45;;;;;;;19.57;56.76;68944.75;6069102;23;20011;-85
2022/05/07 09:52:27;;;;;;;21.63;14.18;;;;;;;19.64;56.16;68952.75;6035655;23;20022;-84
2022/05/07 09:57:38;;;;;;;22.98;16.98;;;;;;;;;;6060665;23;20025;-85
2022/05/07 10:00:08;;;;;;;23.55;15.48;;;;;;;19.82;56.92;68972.75;6058751;23;20090;-85
2022/05/07 10:02:45;;;;;;;21.95;17.05;;;;;;;19.96;56.11;68988.75;6055151;23;20041;-85
2022/05/07 10:05:25;;;;;;;20.85;17.27;;;;;;;19.90;55.95;68978.63;6052482;23;20017;-84
2022/05/07 10:08:21;;;;;;;23.67;17.80;;;;;;;19.94;55.53;68985.91;6033812;23;20019;-87
2022/05/07 10:10:49;;;;;;;19.48;15.20;;;;;;;20.08;56.88;69006.75;6010423;23;20500;-84
2022/05/07 10:13:16;;;;;;;22.80;16.57;;;;;;;20.26;55.26;69019.22;6031042;23;20170;-84
2022/05/07 10:15:44;;;;;;;25.17;17.02;;;;;;;20.19;55.00;69013.91;6028877;23;20244;-85
2022/05/07 10:18:14;;;;;;;23.73;16.27;;;;;;;19.97;55.85;68987.22;6029613;23;20015;-84
2022/05/07 10:20:45;;;;;;;28.20;17.33;;;;;;;20.08;56.39;69001.91;6031897;23;20365;-85
2022/05/07 10:23:15;;;;;;;24.17;19.38;;;;;;;20.12;53.47;69005.94;6030340;23;20015;-85
2022/05/07 10:25:45;;;;;;;25.60;19.08;;;;;;;20.17;55.20;69011.63;6032396;23;20418;-84
2022/05/07 10:28:15;;;;;;;36.90;20.70;;;;;;;20.14;55.17;69005.50;6032676;23;20019;-85
2022/05/07 10:30:52;;;;;;;26.10;17.17;;;;;;;20.18;55.28;69007.38;6008642;23;20061;-85
2022/05/07 10:33:18;;;;;;;23.67;17.70;;;;;;;20.29;54.98;69031.34;6007357;23;20011;-85
2022/05/07 10:35:58;;;;;;;24.00;18.23;;;;;;;20.22;55.21;69014.63;6030303;23;20454;-85
2022/05/07 10:38:24;;;;;;;25.05;17.60;;;;;;;20.32;56.23;69026.09;6056192;23;20102;-85
2022/05/07 10:40:51;;;;;;;26.50;18.52;;;;;;;20.39;55.88;69030.81;6007932;23;20026;-85
2022/05/07 10:43:34;;;;;;;21.10;17.27;;;;;;;20.87;56.36;69087.84;6032966;23;20016;-85
2022/05/07 10:46:03;;;;;;;17.83;15.77;;;;;;;20.92;52.61;69090.31;6033923;23;20039;-84
2022/05/07 10:48:28;;;;;;;24.70;17.42;;;;;;;;;;6033803;23;20019;-84
2022/05/07 10:50:59;;;;;;;22.30;17.93;;;;;;;20.79;52.68;69081.41;6034290;23;20030;-85
2022/05/07 10:53:36;;;;;;;25.38;16.20;;;;;;;20.86;53.74;69089.44;6009656;23;20263;-84
2022/05/07 10:56:01;;;;;;;22.92;17.55;;;;;;;20.61;52.71;69066.25;6030760;23;20026;-84
2022/05/07 10:58:27;;;;;;;21.40;17.08;;;;;;;;;;6036778;23;20035;-85
2022/05/07 11:00:52;;;;;;;20.45;17.70;;;;;;;;;;6038186;23;20023;-85
2022/05/07 11:03:24;;;;;;;22.08;14.23;;;;;;;20.87;51.76;69090.56;6013124;23;20023;-85
2022/05/07 11:05:50;;;;;;;20.98;12.90;;;;;;;21.10;51.18;69115.72;6067152;23;20022;-86
2022/05/07 11:08:15;;;;;;;21.48;15.05;;;;;;;21.01;51.02;69102.72;6076808;23;20029;-85
2022/05/07 11:10:40;;;;;;;16.33;13.57;;;;;;;20.94;50.21;69098.56;6069587;23;20018;-85
2022/05/07 11:13:15;;;;;;;19.63;13.60;;;;;;;20.79;49.41;69081.41;6063730;23;20658;-85
2022/05/07 11:15:41;;;;;;;20.35;14.27;;;;;;;20.89;50.48;69092.84;6062743;23;20021;-86
2022/05/07 11:18:14;;;;;;;19.75;12.02;;;;;;;21.05;48.22;69107.31;6063472;23;20019;-85
2022/05/07 11:20:41;;;;;;;17.10;11.38;;;;;;;21.00;49.20;69109.69;6066132;23;20098;-85
2022/05/07 11:23:06;;;;;;;18.58;11.57;;;;;;;21.00;47.41;69098.88;6063400;23;20030;-85
2022/05/07 11:25:32;;;;;;;16.27;11.65;;;;;;;20.84;47.96;69087.13;6065409;23;20015;-85
2022/05/07 11:27:58;;;;;;;17.23;13.77;;;;;;;21.16;49.18;69122.59;6060886;23;20014;-86
2022/05/07 11:30:23;;;;;;;20.77;12.18;;;;;;;;;;6063620;23;20017;-85
2022/05/07 11:32:49;;;;;;;19.17;13.40;;;;;;;21.43;49.79;69152.34;6059532;23;20018;-86
2022/05/07 11:35:14;;;;;;;19.48;13.85;;;;;;;21.12;49.00;69118.03;6057185;23;20102;-85
2022/05/07 11:37:46;;;;;;;19.95;12.90;;;;;;;;;;6061370;23;20018;-85
2022/05/07 11:40:27;;;;;;;19.42;13.70;;;;;;;20.93;50.27;69091.44;6063081;23;20493;-85
2022/05/07 11:45:25;;;;;;;19.02;15.52;;;;;;;21.07;50.04;69112.88;6063990;23;20014;-85
2022/05/07 11:45:37;;;;;;;23.48;13.93;;;;;;;;;;6044109;23;20031;-85
2022/05/07 11:48:13;;;;;;;17.93;11.43;;;;;;;21.21;48.16;69128.31;6062672;23;20018;-85
2022/05/07 11:50:56;;;;;;;19.80;11.13;;;;;;;21.43;48.37;69157.78;6063210;23;20327;-85
2022/05/07 11:53:27;;;;;;;18.63;12.32;;;;;;;21.58;47.02;69166.81;6061734;23;20019;-85
2022/05/07 11:55:52;;;;;;;15.65;10.43;;;;;;;22.08;45.31;69222.91;6061281;23;20011;-86
2022/05/07 11:58:23;;;;;;;17.55;11.73;;;;;;;21.80;45.60;69194.69;6062142;23;20026;-85
2022/05/07 12:00:50;;;;;;;20.15;11.82;;;;;;;21.69;47.55;69176.69;6062572;23;20376;-85
2022/05/07 12:03:17;;;;;;;17.95;11.20;;;;;;;21.92;47.47;69201.88;6061234;23;20069;-85
2022/05/07 12:05:48;;;;;;;18.02;11.45;;;;;;;21.99;47.33;69210.47;6083951;23;20018;-86